sensor_id;sensor_type;location;lat;lon;timestamp;temperature;humidity
21807;DHT22;11065;50.786;7.840;2023-04-24T00:01:07;14.00;50.40
21807;DHT22;11065;50.786;7.840;2023-04-24T00:03:36;14.00;50.10
21807;DHT22;11065;50.786;7.840;2023-04-24T00:06:06;14.00;49.90
21807;DHT22;11065;50.786;7.840;2023-04-24T00:08:34;14.00;50.10
21807;DHT22;11065;50.786;7.840;2023-04-24T00:11:03;14.00;50.00
21807;DHT22;11065;50.786;7.840;2023-04-24T00:13:31;14.10;50.00
21807;DHT22;11065;50.786;7.840;2023-04-24T00:15:59;14.10;50.10
21807;DHT22;11065;50.786;7.840;2023-04-24T00:18:27;14.10;50.10
21807;DHT22;11065;50.786;7.840;2023-04-24T00:20:57;14.10;50.10
21807;DHT22;11065;50.786;7.840;2023-04-24T00:23:25;14.20;50.30
21807;DHT22;11065;50.786;7.840;2023-04-24T00:25:53;14.20;50.10
21807;DHT22;11065;50.786;7.840;2023-04-24T00:28:22;14.20;50.20
21807;DHT22;11065;50.786;7.840;2023-04-24T00:30:50;14.20;50.10
21807;DHT22;11065;50.786;7.840;2023-04-24T00:33:18;14.20;50.20
21807;DHT22;11065;50.786;7.840;2023-04-24T00:35:47;14.30;50.30
21807;DHT22;11065;50.786;7.840;2023-04-24T00:38:16;14.30;50.50
21807;DHT22;11065;50.786;7.840;2023-04-24T00:40:44;14.30;50.40
21807;DHT22;11065;50.786;7.840;2023-04-24T00:43:12;14.30;50.30
21807;DHT22;11065;50.786;7.840;2023-04-24T00:45:40;14.30;50.30
21807;DHT22;11065;50.786;7.840;2023-04-24T00:48:09;14.30;50.30
21807;DHT22;11065;50.786;7.840;2023-04-24T00:50:38;14.30;50.20
21807;DHT22;11065;50.786;7.840;2023-04-24T00:53:06;14.30;50.40
21807;DHT22;11065;50.786;7.840;2023-04-24T00:55:35;14.30;50.60
21807;DHT22;11065;50.786;7.840;2023-04-24T00:58:04;14.30;50.60
21807;DHT22;11065;50.786;7.840;2023-04-24T01:00:33;14.30;50.70
21807;DHT22;11065;50.786;7.840;2023-04-24T01:03:01;14.30;50.90
21807;DHT22;11065;50.786;7.840;2023-04-24T01:05:33;14.30;51.00
21807;DHT22;11065;50.786;7.840;2023-04-24T01:08:01;14.30;51.10
21807;DHT22;11065;50.786;7.840;2023-04-24T01:10:31;14.30;51.60
21807;DHT22;11065;50.786;7.840;2023-04-24T01:13:02;14.20;51.30
21807;DHT22;11065;50.786;7.840;2023-04-24T01:15:30;14.30;51.30
21807;DHT22;11065;50.786;7.840;2023-04-24T01:17:58;14.20;51.20
21807;DHT22;11065;50.786;7.840;2023-04-24T01:20:26;14.20;51.30
21807;DHT22;11065;50.786;7.840;2023-04-24T01:22:57;14.20;51.60
21807;DHT22;11065;50.786;7.840;2023-04-24T01:25:25;14.20;51.50
21807;DHT22;11065;50.786;7.840;2023-04-24T01:27:56;14.20;51.70
21807;DHT22;11065;50.786;7.840;2023-04-24T01:30:24;14.10;51.50
21807;DHT22;11065;50.786;7.840;2023-04-24T01:32:53;14.10;51.30
21807;DHT22;11065;50.786;7.840;2023-04-24T01:35:21;14.10;51.40
21807;DHT22;11065;50.786;7.840;2023-04-24T01:37:49;14.10;51.50
21807;DHT22;11065;50.786;7.840;2023-04-24T01:40:19;14.10;51.50
21807;DHT22;11065;50.786;7.840;2023-04-24T01:42:47;14.00;51.90
21807;DHT22;11065;50.786;7.840;2023-04-24T01:45:15;14.00;51.60
21807;DHT22;11065;50.786;7.840;2023-04-24T01:47:44;14.00;51.50
21807;DHT22;11065;50.786;7.840;2023-04-24T01:50:13;14.00;51.60
21807;DHT22;11065;50.786;7.840;2023-04-24T01:52:41;14.10;52.00
21807;DHT22;11065;50.786;7.840;2023-04-24T01:55:09;14.00;51.80
21807;DHT22;11065;50.786;7.840;2023-04-24T01:57:39;14.00;51.90
21807;DHT22;11065;50.786;7.840;2023-04-24T02:00:08;14.00;51.90
21807;DHT22;11065;50.786;7.840;2023-04-24T02:02:41;14.00;51.90
21807;DHT22;11065;50.786;7.840;2023-04-24T02:05:14;14.00;51.90
21807;DHT22;11065;50.786;7.840;2023-04-24T02:07:42;14.00;51.90
21807;DHT22;11065;50.786;7.840;2023-04-24T02:10:10;14.00;52.10
21807;DHT22;11065;50.786;7.840;2023-04-24T02:12:43;14.00;52.00
21807;DHT22;11065;50.786;7.840;2023-04-24T02:15:11;14.00;52.20
21807;DHT22;11065;50.786;7.840;2023-04-24T02:17:39;14.00;51.90
21807;DHT22;11065;50.786;7.840;2023-04-24T02:20:07;13.90;52.00
21807;DHT22;11065;50.786;7.840;2023-04-24T02:22:37;13.90;51.80
21807;DHT22;11065;50.786;7.840;2023-04-24T02:25:06;14.00;51.90
21807;DHT22;11065;50.786;7.840;2023-04-24T02:27:34;13.90;52.00
21807;DHT22;11065;50.786;7.840;2023-04-24T02:30:07;13.90;51.70
21807;DHT22;11065;50.786;7.840;2023-04-24T02:32:36;13.90;51.90
21807;DHT22;11065;50.786;7.840;2023-04-24T02:35:04;13.90;51.90
21807;DHT22;11065;50.786;7.840;2023-04-24T02:37:33;13.90;51.90
21807;DHT22;11065;50.786;7.840;2023-04-24T02:40:01;13.90;51.90
21807;DHT22;11065;50.786;7.840;2023-04-24T02:42:29;13.90;52.00
21807;DHT22;11065;50.786;7.840;2023-04-24T02:44:57;14.00;52.10
21807;DHT22;11065;50.786;7.840;2023-04-24T02:47:26;13.90;52.10
21807;DHT22;11065;50.786;7.840;2023-04-24T02:49:54;13.90;52.50
21807;DHT22;11065;50.786;7.840;2023-04-24T02:52:22;13.90;52.70
21807;DHT22;11065;50.786;7.840;2023-04-24T02:54:50;13.80;52.70
21807;DHT22;11065;50.786;7.840;2023-04-24T02:57:18;13.90;52.80
21807;DHT22;11065;50.786;7.840;2023-04-24T02:59:46;13.80;52.20
21807;DHT22;11065;50.786;7.840;2023-04-24T03:02:14;13.80;52.00
21807;DHT22;11065;50.786;7.840;2023-04-24T03:04:44;13.80;52.20
21807;DHT22;11065;50.786;7.840;2023-04-24T03:07:12;13.90;52.10
21807;DHT22;11065;50.786;7.840;2023-04-24T03:09:40;13.80;51.90
21807;DHT22;11065;50.786;7.840;2023-04-24T03:12:09;13.70;51.50
21807;DHT22;11065;50.786;7.840;2023-04-24T03:14:38;13.70;51.30
21807;DHT22;11065;50.786;7.840;2023-04-24T03:17:06;13.80;51.30
21807;DHT22;11065;50.786;7.840;2023-04-24T03:19:34;13.70;51.20
21807;DHT22;11065;50.786;7.840;2023-04-24T03:22:09;13.60;51.00
21807;DHT22;11065;50.786;7.840;2023-04-24T03:24:39;13.60;50.90
21807;DHT22;11065;50.786;7.840;2023-04-24T03:27:07;13.60;50.80
21807;DHT22;11065;50.786;7.840;2023-04-24T03:29:48;13.50;50.60
21807;DHT22;11065;50.786;7.840;2023-04-24T03:32:18;13.50;50.50
21807;DHT22;11065;50.786;7.840;2023-04-24T03:34:47;13.40;50.40
21807;DHT22;11065;50.786;7.840;2023-04-24T03:37:17;13.40;50.30
21807;DHT22;11065;50.786;7.840;2023-04-24T03:39:53;13.30;50.30
21807;DHT22;11065;50.786;7.840;2023-04-24T03:42:24;13.20;50.20
21807;DHT22;11065;50.786;7.840;2023-04-24T03:44:55;13.20;50.20
21807;DHT22;11065;50.786;7.840;2023-04-24T03:47:28;13.10;50.20
21807;DHT22;11065;50.786;7.840;2023-04-24T03:49:59;13.10;50.20
21807;DHT22;11065;50.786;7.840;2023-04-24T03:52:29;13.00;50.20
21807;DHT22;11065;50.786;7.840;2023-04-24T03:54:58;13.00;50.20
21807;DHT22;11065;50.786;7.840;2023-04-24T03:57:27;12.90;50.20
21807;DHT22;11065;50.786;7.840;2023-04-24T04:00:17;12.90;50.20
21807;DHT22;11065;50.786;7.840;2023-04-24T04:02:54;12.80;50.10
21807;DHT22;11065;50.786;7.840;2023-04-24T04:05:23;12.90;50.10
21807;DHT22;11065;50.786;7.840;2023-04-24T04:07:52;12.80;50.10
21807;DHT22;11065;50.786;7.840;2023-04-24T04:10:20;12.80;50.00
21807;DHT22;11065;50.786;7.840;2023-04-24T04:12:48;12.80;50.00
21807;DHT22;11065;50.786;7.840;2023-04-24T04:15:17;12.80;50.00
21807;DHT22;11065;50.786;7.840;2023-04-24T04:17:45;12.80;50.00
21807;DHT22;11065;50.786;7.840;2023-04-24T04:20:13;12.80;50.00
21807;DHT22;11065;50.786;7.840;2023-04-24T04:22:41;12.80;49.80
21807;DHT22;11065;50.786;7.840;2023-04-24T04:25:17;12.80;49.70
21807;DHT22;11065;50.786;7.840;2023-04-24T04:27:46;12.80;49.70
21807;DHT22;11065;50.786;7.840;2023-04-24T04:30:15;12.70;49.60
21807;DHT22;11065;50.786;7.840;2023-04-24T04:32:52;12.70;49.60
21807;DHT22;11065;50.786;7.840;2023-04-24T04:35:21;12.60;49.50
21807;DHT22;11065;50.786;7.840;2023-04-24T04:37:52;12.60;49.60
21807;DHT22;11065;50.786;7.840;2023-04-24T04:40:33;12.50;49.50
21807;DHT22;11065;50.786;7.840;2023-04-24T04:43:04;12.50;49.40
21807;DHT22;11065;50.786;7.840;2023-04-24T04:45:40;12.50;49.40
21807;DHT22;11065;50.786;7.840;2023-04-24T04:48:24;12.30;49.40
21807;DHT22;11065;50.786;7.840;2023-04-24T04:50:52;12.30;49.40
21807;DHT22;11065;50.786;7.840;2023-04-24T04:53:21;12.20;49.40
21807;DHT22;11065;50.786;7.840;2023-04-24T04:55:51;12.20;49.40
21807;DHT22;11065;50.786;7.840;2023-04-24T04:58:21;12.10;49.50
21807;DHT22;11065;50.786;7.840;2023-04-24T05:00:54;12.10;49.60
21807;DHT22;11065;50.786;7.840;2023-04-24T05:03:27;12.00;49.70
21807;DHT22;11065;50.786;7.840;2023-04-24T05:06:01;12.00;49.70
21807;DHT22;11065;50.786;7.840;2023-04-24T05:08:32;12.00;49.80
21807;DHT22;11065;50.786;7.840;2023-04-24T05:11:03;12.00;49.80
21807;DHT22;11065;50.786;7.840;2023-04-24T05:13:31;12.00;49.90
21807;DHT22;11065;50.786;7.840;2023-04-24T05:16:12;12.00;49.80
21807;DHT22;11065;50.786;7.840;2023-04-24T05:18:40;12.00;49.90
21807;DHT22;11065;50.786;7.840;2023-04-24T05:21:10;12.00;49.90
21807;DHT22;11065;50.786;7.840;2023-04-24T05:23:41;12.00;49.90
21807;DHT22;11065;50.786;7.840;2023-04-24T05:26:13;12.00;50.00
21807;DHT22;11065;50.786;7.840;2023-04-24T05:28:42;11.90;50.00
21807;DHT22;11065;50.786;7.840;2023-04-24T05:31:12;11.90;50.00
21807;DHT22;11065;50.786;7.840;2023-04-24T05:33:40;12.00;50.10
21807;DHT22;11065;50.786;7.840;2023-04-24T05:36:08;11.90;50.10
21807;DHT22;11065;50.786;7.840;2023-04-24T05:38:36;11.90;50.10
21807;DHT22;11065;50.786;7.840;2023-04-24T05:41:05;12.00;50.30
21807;DHT22;11065;50.786;7.840;2023-04-24T05:43:34;12.00;50.20
21807;DHT22;11065;50.786;7.840;2023-04-24T05:46:02;12.10;50.30
21807;DHT22;11065;50.786;7.840;2023-04-24T05:48:30;12.10;50.20
21807;DHT22;11065;50.786;7.840;2023-04-24T05:51:00;12.20;50.30
21807;DHT22;11065;50.786;7.840;2023-04-24T05:53:28;12.20;50.20
21807;DHT22;11065;50.786;7.840;2023-04-24T05:55:57;12.20;50.10
21807;DHT22;11065;50.786;7.840;2023-04-24T05:58:25;12.30;50.20
21807;DHT22;11065;50.786;7.840;2023-04-24T06:00:55;12.30;50.20
21807;DHT22;11065;50.786;7.840;2023-04-24T06:03:26;12.30;50.20
21807;DHT22;11065;50.786;7.840;2023-04-24T06:05:54;12.30;50.30
21807;DHT22;11065;50.786;7.840;2023-04-24T06:08:23;12.40;50.20
21807;DHT22;11065;50.786;7.840;2023-04-24T06:10:51;12.40;50.20
21807;DHT22;11065;50.786;7.840;2023-04-24T06:13:22;12.40;50.10
21807;DHT22;11065;50.786;7.840;2023-04-24T06:16:09;12.50;50.10
21807;DHT22;11065;50.786;7.840;2023-04-24T06:18:40;12.50;50.00
21807;DHT22;11065;50.786;7.840;2023-04-24T06:21:08;12.50;50.10
21807;DHT22;11065;50.786;7.840;2023-04-24T06:23:36;12.50;50.10
21807;DHT22;11065;50.786;7.840;2023-04-24T06:26:04;12.60;50.10
21807;DHT22;11065;50.786;7.840;2023-04-24T06:28:32;12.60;50.10
21807;DHT22;11065;50.786;7.840;2023-04-24T06:31:01;12.70;50.00
21807;DHT22;11065;50.786;7.840;2023-04-24T06:33:30;12.70;49.90
21807;DHT22;11065;50.786;7.840;2023-04-24T06:35:58;12.80;49.90
21807;DHT22;11065;50.786;7.840;2023-04-24T06:38:26;12.90;50.00
21807;DHT22;11065;50.786;7.840;2023-04-24T06:40:56;12.90;50.00
21807;DHT22;11065;50.786;7.840;2023-04-24T06:43:24;13.00;50.20
21807;DHT22;11065;50.786;7.840;2023-04-24T06:45:52;13.10;50.10
21807;DHT22;11065;50.786;7.840;2023-04-24T06:48:20;13.20;50.20
21807;DHT22;11065;50.786;7.840;2023-04-24T06:50:50;13.30;50.10
21807;DHT22;11065;50.786;7.840;2023-04-24T06:53:18;13.40;50.10
21807;DHT22;11065;50.786;7.840;2023-04-24T06:55:46;13.50;50.10
21807;DHT22;11065;50.786;7.840;2023-04-24T06:58:15;13.60;50.20
21807;DHT22;11065;50.786;7.840;2023-04-24T07:00:43;13.70;50.20
21807;DHT22;11065;50.786;7.840;2023-04-24T07:03:11;13.90;50.10
21807;DHT22;11065;50.786;7.840;2023-04-24T07:05:39;13.90;50.00
21807;DHT22;11065;50.786;7.840;2023-04-24T07:08:10;13.90;49.60
21807;DHT22;11065;50.786;7.840;2023-04-24T07:10:38;14.00;49.10
21807;DHT22;11065;50.786;7.840;2023-04-24T07:13:06;14.00;49.30
21807;DHT22;11065;50.786;7.840;2023-04-24T07:15:35;14.00;49.30
21807;DHT22;11065;50.786;7.840;2023-04-24T07:18:03;14.00;49.30
21807;DHT22;11065;50.786;7.840;2023-04-24T07:20:31;14.10;49.60
21807;DHT22;11065;50.786;7.840;2023-04-24T07:23:00;14.20;49.40
21807;DHT22;11065;50.786;7.840;2023-04-24T07:25:29;14.20;49.30
21807;DHT22;11065;50.786;7.840;2023-04-24T07:27:58;14.30;49.20
21807;DHT22;11065;50.786;7.840;2023-04-24T07:30:26;14.40;49.00
21807;DHT22;11065;50.786;7.840;2023-04-24T07:32:55;14.40;48.80
21807;DHT22;11065;50.786;7.840;2023-04-24T07:35:23;14.60;48.70
21807;DHT22;11065;50.786;7.840;2023-04-24T07:37:53;14.50;48.70
21807;DHT22;11065;50.786;7.840;2023-04-24T07:40:21;14.50;48.20
21807;DHT22;11065;50.786;7.840;2023-04-24T07:42:51;14.50;48.50
21807;DHT22;11065;50.786;7.840;2023-04-24T07:45:19;14.60;48.50
21807;DHT22;11065;50.786;7.840;2023-04-24T07:47:47;14.60;48.50
21807;DHT22;11065;50.786;7.840;2023-04-24T07:50:15;14.50;48.60
21807;DHT22;11065;50.786;7.840;2023-04-24T07:52:43;14.60;48.80
21807;DHT22;11065;50.786;7.840;2023-04-24T07:55:11;14.50;48.70
21807;DHT22;11065;50.786;7.840;2023-04-24T07:57:39;14.50;48.80
21807;DHT22;11065;50.786;7.840;2023-04-24T08:00:10;14.50;48.70
21807;DHT22;11065;50.786;7.840;2023-04-24T08:02:38;14.40;48.60
21807;DHT22;11065;50.786;7.840;2023-04-24T08:05:07;14.40;48.70
21807;DHT22;11065;50.786;7.840;2023-04-24T08:07:36;14.40;48.80
21807;DHT22;11065;50.786;7.840;2023-04-24T08:10:04;14.40;48.80
21807;DHT22;11065;50.786;7.840;2023-04-24T08:12:33;14.20;48.80
21807;DHT22;11065;50.786;7.840;2023-04-24T08:15:01;14.20;48.90
21807;DHT22;11065;50.786;7.840;2023-04-24T08:17:30;14.10;48.90
21807;DHT22;11065;50.786;7.840;2023-04-24T08:19:58;14.00;49.20
21807;DHT22;11065;50.786;7.840;2023-04-24T08:22:28;13.90;49.20
21807;DHT22;11065;50.786;7.840;2023-04-24T08:24:56;13.80;49.40
21807;DHT22;11065;50.786;7.840;2023-04-24T08:27:26;13.70;49.30
21807;DHT22;11065;50.786;7.840;2023-04-24T08:29:54;13.70;49.60
21807;DHT22;11065;50.786;7.840;2023-04-24T08:32:22;13.60;49.70
21807;DHT22;11065;50.786;7.840;2023-04-24T08:34:51;13.60;49.90
21807;DHT22;11065;50.786;7.840;2023-04-24T08:37:20;13.50;50.20
21807;DHT22;11065;50.786;7.840;2023-04-24T08:39:48;13.50;50.40
21807;DHT22;11065;50.786;7.840;2023-04-24T08:42:17;13.50;50.70
21807;DHT22;11065;50.786;7.840;2023-04-24T08:44:45;13.50;50.40
21807;DHT22;11065;50.786;7.840;2023-04-24T08:47:15;13.50;50.60
21807;DHT22;11065;50.786;7.840;2023-04-24T08:49:43;13.50;50.70
21807;DHT22;11065;50.786;7.840;2023-04-24T08:52:13;13.40;50.80
21807;DHT22;11065;50.786;7.840;2023-04-24T08:54:43;13.40;51.00
21807;DHT22;11065;50.786;7.840;2023-04-24T08:57:14;13.40;50.60
21807;DHT22;11065;50.786;7.840;2023-04-24T08:59:42;13.40;51.10
21807;DHT22;11065;50.786;7.840;2023-04-24T09:02:13;13.30;50.90
21807;DHT22;11065;50.786;7.840;2023-04-24T09:04:43;13.20;50.80
21807;DHT22;11065;50.786;7.840;2023-04-24T09:07:13;13.20;50.50
21807;DHT22;11065;50.786;7.840;2023-04-24T09:09:42;13.10;50.40
21807;DHT22;11065;50.786;7.840;2023-04-24T09:12:11;13.00;50.40
21807;DHT22;11065;50.786;7.840;2023-04-24T09:14:41;12.90;50.40
21807;DHT22;11065;50.786;7.840;2023-04-24T09:17:12;12.80;50.70
21807;DHT22;11065;50.786;7.840;2023-04-24T09:19:41;12.70;50.50
21807;DHT22;11065;50.786;7.840;2023-04-24T09:22:10;12.70;50.90
21807;DHT22;11065;50.786;7.840;2023-04-24T09:24:40;12.60;51.00
21807;DHT22;11065;50.786;7.840;2023-04-24T09:27:11;12.50;51.30
21807;DHT22;11065;50.786;7.840;2023-04-24T09:29:39;12.50;51.00
21807;DHT22;11065;50.786;7.840;2023-04-24T09:32:22;12.40;50.90
21807;DHT22;11065;50.786;7.840;2023-04-24T09:35:05;12.40;51.10
21807;DHT22;11065;50.786;7.840;2023-04-24T09:37:36;12.30;51.40
21807;DHT22;11065;50.786;7.840;2023-04-24T09:40:11;12.30;51.00
21807;DHT22;11065;50.786;7.840;2023-04-24T09:42:42;12.30;51.00
21807;DHT22;11065;50.786;7.840;2023-04-24T09:45:11;12.10;50.90
21807;DHT22;11065;50.786;7.840;2023-04-24T09:47:41;12.10;50.80
21807;DHT22;11065;50.786;7.840;2023-04-24T09:50:15;12.10;51.00
21807;DHT22;11065;50.786;7.840;2023-04-24T09:52:46;12.00;50.90
21807;DHT22;11065;50.786;7.840;2023-04-24T09:55:18;11.90;50.80
21807;DHT22;11065;50.786;7.840;2023-04-24T09:57:48;11.80;50.60
21807;DHT22;11065;50.786;7.840;2023-04-24T10:00:24;11.80;50.60
21807;DHT22;11065;50.786;7.840;2023-04-24T10:02:57;11.70;50.70
21807;DHT22;11065;50.786;7.840;2023-04-24T10:05:28;11.60;50.60
21807;DHT22;11065;50.786;7.840;2023-04-24T10:08:00;11.60;50.70
21807;DHT22;11065;50.786;7.840;2023-04-24T10:10:29;11.60;50.90
21807;DHT22;11065;50.786;7.840;2023-04-24T10:12:59;11.50;51.20
21807;DHT22;11065;50.786;7.840;2023-04-24T10:15:27;11.50;51.30
21807;DHT22;11065;50.786;7.840;2023-04-24T10:17:58;11.40;51.30
21807;DHT22;11065;50.786;7.840;2023-04-24T10:20:28;11.40;51.50
21807;DHT22;11065;50.786;7.840;2023-04-24T10:22:58;11.40;52.00
21807;DHT22;11065;50.786;7.840;2023-04-24T10:25:29;11.40;51.90
21807;DHT22;11065;50.786;7.840;2023-04-24T10:28:00;11.40;52.40
21807;DHT22;11065;50.786;7.840;2023-04-24T10:30:30;11.40;52.50
21807;DHT22;11065;50.786;7.840;2023-04-24T10:33:02;11.40;52.50
21807;DHT22;11065;50.786;7.840;2023-04-24T10:35:31;11.40;52.30
21807;DHT22;11065;50.786;7.840;2023-04-24T10:38:05;11.40;52.70
21807;DHT22;11065;50.786;7.840;2023-04-24T10:40:34;11.50;52.50
21807;DHT22;11065;50.786;7.840;2023-04-24T10:43:05;11.50;52.60
21807;DHT22;11065;50.786;7.840;2023-04-24T10:45:35;11.50;52.80
21807;DHT22;11065;50.786;7.840;2023-04-24T10:48:04;11.50;52.70
21807;DHT22;11065;50.786;7.840;2023-04-24T10:50:45;11.60;52.90
21807;DHT22;11065;50.786;7.840;2023-04-24T10:53:15;11.70;53.10
21807;DHT22;11065;50.786;7.840;2023-04-24T10:55:45;11.80;53.10
21807;DHT22;11065;50.786;7.840;2023-04-24T10:58:16;11.90;53.10
21807;DHT22;11065;50.786;7.840;2023-04-24T11:00:56;12.00;52.90
21807;DHT22;11065;50.786;7.840;2023-04-24T11:03:26;12.10;52.70
21807;DHT22;11065;50.786;7.840;2023-04-24T11:05:58;12.10;52.40
21807;DHT22;11065;50.786;7.840;2023-04-24T11:08:29;12.20;52.50
21807;DHT22;11065;50.786;7.840;2023-04-24T11:11:03;12.20;52.40
21807;DHT22;11065;50.786;7.840;2023-04-24T11:14:04;12.20;53.00
21807;DHT22;11065;50.786;7.840;2023-04-24T11:16:37;12.30;52.60
21807;DHT22;11065;50.786;7.840;2023-04-24T11:19:07;12.30;52.40
21807;DHT22;11065;50.786;7.840;2023-04-24T11:21:40;12.40;52.60
21807;DHT22;11065;50.786;7.840;2023-04-24T11:24:23;12.50;52.60
21807;DHT22;11065;50.786;7.840;2023-04-24T11:26:51;12.40;52.70
21807;DHT22;11065;50.786;7.840;2023-04-24T11:29:22;12.40;52.40
21807;DHT22;11065;50.786;7.840;2023-04-24T11:31:51;12.50;53.00
21807;DHT22;11065;50.786;7.840;2023-04-24T11:34:20;12.50;52.90
21807;DHT22;11065;50.786;7.840;2023-04-24T11:36:48;12.70;52.90
21807;DHT22;11065;50.786;7.840;2023-04-24T11:39:16;12.70;53.10
21807;DHT22;11065;50.786;7.840;2023-04-24T11:41:44;12.80;53.40
21807;DHT22;11065;50.786;7.840;2023-04-24T11:44:13;12.90;53.30
21807;DHT22;11065;50.786;7.840;2023-04-24T11:46:44;13.10;53.30
21807;DHT22;11065;50.786;7.840;2023-04-24T11:49:12;13.30;53.70
21807;DHT22;11065;50.786;7.840;2023-04-24T11:51:40;13.50;54.30
21807;DHT22;11065;50.786;7.840;2023-04-24T11:54:19;13.90;54.10
21807;DHT22;11065;50.786;7.840;2023-04-24T11:56:49;14.20;53.60
21807;DHT22;11065;50.786;7.840;2023-04-24T11:59:17;14.40;53.20
21807;DHT22;11065;50.786;7.840;2023-04-24T12:01:48;14.50;52.90
21807;DHT22;11065;50.786;7.840;2023-04-24T12:04:17;14.70;52.60
21807;DHT22;11065;50.786;7.840;2023-04-24T12:07:02;14.70;52.10
21807;DHT22;11065;50.786;7.840;2023-04-24T12:09:40;14.80;51.90
21807;DHT22;11065;50.786;7.840;2023-04-24T12:12:10;14.80;51.40
21807;DHT22;11065;50.786;7.840;2023-04-24T12:14:52;14.70;51.10
21807;DHT22;11065;50.786;7.840;2023-04-24T12:17:27;14.60;50.80
21807;DHT22;11065;50.786;7.840;2023-04-24T12:19:59;14.50;50.60
21807;DHT22;11065;50.786;7.840;2023-04-24T12:22:43;14.40;50.70
21807;DHT22;11065;50.786;7.840;2023-04-24T12:25:12;14.20;50.90
21807;DHT22;11065;50.786;7.840;2023-04-24T12:27:40;14.10;51.00
21807;DHT22;11065;50.786;7.840;2023-04-24T12:30:11;13.90;51.00
21807;DHT22;11065;50.786;7.840;2023-04-24T12:32:46;13.80;51.00
21807;DHT22;11065;50.786;7.840;2023-04-24T12:35:19;13.70;51.40
21807;DHT22;11065;50.786;7.840;2023-04-24T12:37:48;13.60;51.60
21807;DHT22;11065;50.786;7.840;2023-04-24T12:40:18;13.50;51.60
21807;DHT22;11065;50.786;7.840;2023-04-24T12:42:47;13.50;51.80
21807;DHT22;11065;50.786;7.840;2023-04-24T12:45:17;13.50;51.80
21807;DHT22;11065;50.786;7.840;2023-04-24T12:47:46;13.40;51.60
21807;DHT22;11065;50.786;7.840;2023-04-24T12:50:15;13.40;51.40
21807;DHT22;11065;50.786;7.840;2023-04-24T12:52:43;13.30;51.50
21807;DHT22;11065;50.786;7.840;2023-04-24T12:55:12;13.30;51.70
21807;DHT22;11065;50.786;7.840;2023-04-24T12:57:40;13.30;51.90
21807;DHT22;11065;50.786;7.840;2023-04-24T13:00:09;13.40;52.10
21807;DHT22;11065;50.786;7.840;2023-04-24T13:02:37;13.40;52.40
21807;DHT22;11065;50.786;7.840;2023-04-24T13:05:08;13.50;52.90
21807;DHT22;11065;50.786;7.840;2023-04-24T13:07:38;13.70;53.00
21807;DHT22;11065;50.786;7.840;2023-04-24T13:10:07;13.90;52.80
21807;DHT22;11065;50.786;7.840;2023-04-24T13:12:35;14.10;52.40
21807;DHT22;11065;50.786;7.840;2023-04-24T13:15:04;14.20;52.20
21807;DHT22;11065;50.786;7.840;2023-04-24T13:17:33;14.20;51.90
21807;DHT22;11065;50.786;7.840;2023-04-24T13:20:01;14.30;51.50
21807;DHT22;11065;50.786;7.840;2023-04-24T13:22:30;14.20;51.40
21807;DHT22;11065;50.786;7.840;2023-04-24T13:24:58;14.20;51.60
21807;DHT22;11065;50.786;7.840;2023-04-24T13:27:28;14.20;51.90
21807;DHT22;11065;50.786;7.840;2023-04-24T13:29:56;14.20;51.80
21807;DHT22;11065;50.786;7.840;2023-04-24T13:32:24;14.20;51.70
21807;DHT22;11065;50.786;7.840;2023-04-24T13:34:52;14.20;51.60
21807;DHT22;11065;50.786;7.840;2023-04-24T13:37:20;14.20;51.50
21807;DHT22;11065;50.786;7.840;2023-04-24T13:39:50;14.20;51.50
21807;DHT22;11065;50.786;7.840;2023-04-24T13:42:19;14.10;51.40
21807;DHT22;11065;50.786;7.840;2023-04-24T13:44:47;14.10;51.30
21807;DHT22;11065;50.786;7.840;2023-04-24T13:47:15;14.10;51.30
21807;DHT22;11065;50.786;7.840;2023-04-24T13:49:43;14.00;51.30
21807;DHT22;11065;50.786;7.840;2023-04-24T13:52:11;14.00;51.60
21807;DHT22;11065;50.786;7.840;2023-04-24T13:54:39;14.20;52.30
21807;DHT22;11065;50.786;7.840;2023-04-24T13:57:08;14.30;53.00
21807;DHT22;11065;50.786;7.840;2023-04-24T13:59:36;14.60;53.20
21807;DHT22;11065;50.786;7.840;2023-04-24T14:02:04;15.00;52.80
21807;DHT22;11065;50.786;7.840;2023-04-24T14:04:32;15.20;52.20
21807;DHT22;11065;50.786;7.840;2023-04-24T14:07:01;15.30;51.90
21807;DHT22;11065;50.786;7.840;2023-04-24T14:09:29;15.40;51.30
21807;DHT22;11065;50.786;7.840;2023-04-24T14:11:57;15.50;51.10
21807;DHT22;11065;50.786;7.840;2023-04-24T14:14:26;15.50;50.90
21807;DHT22;11065;50.786;7.840;2023-04-24T14:16:57;15.50;50.60
21807;DHT22;11065;50.786;7.840;2023-04-24T14:19:25;15.60;51.00
21807;DHT22;11065;50.786;7.840;2023-04-24T14:21:53;15.80;51.10
21807;DHT22;11065;50.786;7.840;2023-04-24T14:24:22;15.90;50.80
21807;DHT22;11065;50.786;7.840;2023-04-24T14:26:50;15.90;50.40
21807;DHT22;11065;50.786;7.840;2023-04-24T14:29:18;15.90;50.00
21807;DHT22;11065;50.786;7.840;2023-04-24T14:31:47;15.90;50.00
21807;DHT22;11065;50.786;7.840;2023-04-24T14:34:16;15.80;50.00
21807;DHT22;11065;50.786;7.840;2023-04-24T14:36:44;15.80;50.10
21807;DHT22;11065;50.786;7.840;2023-04-24T14:39:12;15.70;49.70
21807;DHT22;11065;50.786;7.840;2023-04-24T14:41:40;15.60;49.50
21807;DHT22;11065;50.786;7.840;2023-04-24T14:44:08;15.50;49.50
21807;DHT22;11065;50.786;7.840;2023-04-24T14:46:36;15.30;49.50
21807;DHT22;11065;50.786;7.840;2023-04-24T14:49:05;15.20;49.60
21807;DHT22;11065;50.786;7.840;2023-04-24T14:51:36;15.10;49.80
21807;DHT22;11065;50.786;7.840;2023-04-24T14:54:04;15.00;50.00
21807;DHT22;11065;50.786;7.840;2023-04-24T14:56:32;14.90;50.40
21807;DHT22;11065;50.786;7.840;2023-04-24T14:59:00;14.90;51.00
21807;DHT22;11065;50.786;7.840;2023-04-24T15:01:29;15.00;51.50
21807;DHT22;11065;50.786;7.840;2023-04-24T15:03:57;15.20;51.80
21807;DHT22;11065;50.786;7.840;2023-04-24T15:06:26;15.50;51.80
21807;DHT22;11065;50.786;7.840;2023-04-24T15:08:55;15.80;51.40
21807;DHT22;11065;50.786;7.840;2023-04-24T15:11:23;15.90;51.00
21807;DHT22;11065;50.786;7.840;2023-04-24T15:13:51;16.00;50.40
21807;DHT22;11065;50.786;7.840;2023-04-24T15:16:19;16.00;49.80
21807;DHT22;11065;50.786;7.840;2023-04-24T15:18:47;16.00;50.00
21807;DHT22;11065;50.786;7.840;2023-04-24T15:21:15;16.10;50.50
21807;DHT22;11065;50.786;7.840;2023-04-24T15:23:45;16.30;50.90
21807;DHT22;11065;50.786;7.840;2023-04-24T15:26:13;16.50;50.90
21807;DHT22;11065;50.786;7.840;2023-04-24T15:28:42;16.70;50.90
21807;DHT22;11065;50.786;7.840;2023-04-24T15:31:09;16.90;50.50
21807;DHT22;11065;50.786;7.840;2023-04-24T15:33:38;17.10;50.10
21807;DHT22;11065;50.786;7.840;2023-04-24T15:36:06;17.10;49.50
21807;DHT22;11065;50.786;7.840;2023-04-24T15:38:34;17.20;50.00
21807;DHT22;11065;50.786;7.840;2023-04-24T15:41:04;17.30;49.30
21807;DHT22;11065;50.786;7.840;2023-04-24T15:43:32;17.20;48.60
21807;DHT22;11065;50.786;7.840;2023-04-24T15:46:01;17.10;48.10